sensor_id;sensor_type;location;lat;lon;timestamp;temperature;humidity
34829;DHT22;21042;47.620;12.188;2022-12-18T00:01:14;-5.70;99.90
34829;DHT22;21042;47.620;12.188;2022-12-18T00:03:41;-5.70;99.90
34829;DHT22;21042;47.620;12.188;2022-12-18T00:06:09;-5.70;99.90
34829;DHT22;21042;47.620;12.188;2022-12-18T00:08:36;-5.80;99.90
34829;DHT22;21042;47.620;12.188;2022-12-18T00:11:08;-5.90;99.90
34829;DHT22;21042;47.620;12.188;2022-12-18T00:13:35;-5.90;99.90
34829;DHT22;21042;47.620;12.188;2022-12-18T00:20:34;-5.90;99.90
34829;DHT22;21042;47.620;12.188;2022-12-18T00:22:58;-5.80;99.90
34829;DHT22;21042;47.620;12.188;2022-12-18T00:25:25;-5.90;99.90
34829;DHT22;21042;47.620;12.188;2022-12-18T00:27:52;-5.80;99.90
34829;DHT22;21042;47.620;12.188;2022-12-18T00:30:19;-5.80;99.90
34829;DHT22;21042;47.620;12.188;2022-12-18T00:32:45;-5.80;99.90
34829;DHT22;21042;47.620;12.188;2022-12-18T00:35:12;-5.80;99.90
34829;DHT22;21042;47.620;12.188;2022-12-18T00:37:39;-5.80;99.90
34829;DHT22;21042;47.620;12.188;2022-12-18T00:40:06;-5.80;99.90
34829;DHT22;21042;47.620;12.188;2022-12-18T00:42:33;-5.90;99.90
34829;DHT22;21042;47.620;12.188;2022-12-18T00:45:19;-5.90;99.90
34829;DHT22;21042;47.620;12.188;2022-12-18T00:47:45;-6.00;99.90
34829;DHT22;21042;47.620;12.188;2022-12-18T00:50:12;-6.20;99.90
34829;DHT22;21042;47.620;12.188;2022-12-18T00:52:40;-6.10;99.90
34829;DHT22;21042;47.620;12.188;2022-12-18T00:55:07;-6.10;99.90
34829;DHT22;21042;47.620;12.188;2022-12-18T00:57:34;-6.00;99.90
34829;DHT22;21042;47.620;12.188;2022-12-18T01:00:01;-5.90;99.90
34829;DHT22;21042;47.620;12.188;2022-12-18T01:02:28;-5.90;99.90
34829;DHT22;21042;47.620;12.188;2022-12-18T01:04:55;-6.00;99.90
34829;DHT22;21042;47.620;12.188;2022-12-18T01:07:22;-5.90;99.90
34829;DHT22;21042;47.620;12.188;2022-12-18T01:09:49;-5.90;99.90
34829;DHT22;21042;47.620;12.188;2022-12-18T01:12:15;-5.80;99.90
34829;DHT22;21042;47.620;12.188;2022-12-18T01:14:42;-5.80;99.90
34829;DHT22;21042;47.620;12.188;2022-12-18T01:17:09;-5.80;99.90
34829;DHT22;21042;47.620;12.188;2022-12-18T01:19:35;-5.90;99.90
34829;DHT22;21042;47.620;12.188;2022-12-18T01:22:03;-5.90;99.90
34829;DHT22;21042;47.620;12.188;2022-12-18T01:24:29;-5.80;99.90
34829;DHT22;21042;47.620;12.188;2022-12-18T01:26:56;-5.80;99.90
34829;DHT22;21042;47.620;12.188;2022-12-18T01:29:23;-5.70;99.90
34829;DHT22;21042;47.620;12.188;2022-12-18T01:31:50;-5.80;99.90
34829;DHT22;21042;47.620;12.188;2022-12-18T01:34:17;-5.90;99.90
34829;DHT22;21042;47.620;12.188;2022-12-18T01:36:43;-5.90;99.90
34829;DHT22;21042;47.620;12.188;2022-12-18T01:39:12;-5.90;99.90
34829;DHT22;21042;47.620;12.188;2022-12-18T01:41:42;-5.90;99.90
34829;DHT22;21042;47.620;12.188;2022-12-18T01:44:52;-5.90;99.90
34829;DHT22;21042;47.620;12.188;2022-12-18T01:47:36;-5.90;99.90
34829;DHT22;21042;47.620;12.188;2022-12-18T01:50:36;-5.90;99.90
34829;DHT22;21042;47.620;12.188;2022-12-18T01:53:14;-6.00;99.90
34829;DHT22;21042;47.620;12.188;2022-12-18T01:55:51;-5.90;99.90
34829;DHT22;21042;47.620;12.188;2022-12-18T01:58:21;-5.90;99.90
34829;DHT22;21042;47.620;12.188;2022-12-18T02:00:49;-6.00;99.90
34829;DHT22;21042;47.620;12.188;2022-12-18T02:03:18;-5.90;99.90
34829;DHT22;21042;47.620;12.188;2022-12-18T02:06:36;-6.00;99.90
34829;DHT22;21042;47.620;12.188;2022-12-18T02:08:55;-6.00;99.90
34829;DHT22;21042;47.620;12.188;2022-12-18T02:11:53;-6.00;99.90
34829;DHT22;21042;47.620;12.188;2022-12-18T02:14:36;-6.10;99.90
34829;DHT22;21042;47.620;12.188;2022-12-18T02:17:22;-6.10;99.90
34829;DHT22;21042;47.620;12.188;2022-12-18T02:28:04;-5.90;99.90
34829;DHT22;21042;47.620;12.188;2022-12-18T02:30:35;-5.80;99.90
34829;DHT22;21042;47.620;12.188;2022-12-18T02:33:06;-5.80;99.90
34829;DHT22;21042;47.620;12.188;2022-12-18T02:35:35;-5.70;99.90
34829;DHT22;21042;47.620;12.188;2022-12-18T02:38:03;-5.70;99.90
34829;DHT22;21042;47.620;12.188;2022-12-18T02:40:36;-5.70;99.90
34829;DHT22;21042;47.620;12.188;2022-12-18T02:43:12;-5.70;99.90
34829;DHT22;21042;47.620;12.188;2022-12-18T02:45:50;-5.70;99.90
34829;DHT22;21042;47.620;12.188;2022-12-18T02:48:22;-5.70;99.90
34829;DHT22;21042;47.620;12.188;2022-12-18T02:51:23;-5.70;99.90
34829;DHT22;21042;47.620;12.188;2022-12-18T02:54:09;-5.70;99.90
34829;DHT22;21042;47.620;12.188;2022-12-18T02:56:53;-5.70;99.90
34829;DHT22;21042;47.620;12.188;2022-12-18T02:59:38;-5.70;99.90
34829;DHT22;21042;47.620;12.188;2022-12-18T03:02:28;-5.70;99.90
34829;DHT22;21042;47.620;12.188;2022-12-18T03:05:12;-5.70;99.90
34829;DHT22;21042;47.620;12.188;2022-12-18T03:07:50;-5.70;99.90
34829;DHT22;21042;47.620;12.188;2022-12-18T03:10:24;-5.80;99.90
34829;DHT22;21042;47.620;12.188;2022-12-18T03:13:07;-5.80;99.90
34829;DHT22;21042;47.620;12.188;2022-12-18T03:15:47;-5.80;99.90
34829;DHT22;21042;47.620;12.188;2022-12-18T03:18:18;-5.70;99.90
34829;DHT22;21042;47.620;12.188;2022-12-18T03:20:48;-5.70;99.90
34829;DHT22;21042;47.620;12.188;2022-12-18T03:23:24;-5.70;99.90
34829;DHT22;21042;47.620;12.188;2022-12-18T03:25:58;-5.70;99.90
34829;DHT22;21042;47.620;12.188;2022-12-18T03:28:40;-5.70;99.90
34829;DHT22;21042;47.620;12.188;2022-12-18T03:31:11;-5.60;99.90
34829;DHT22;21042;47.620;12.188;2022-12-18T03:33:51;-5.60;99.90
34829;DHT22;21042;47.620;12.188;2022-12-18T03:36:20;-5.70;99.90
34829;DHT22;21042;47.620;12.188;2022-12-18T03:38:47;-5.60;99.90
34829;DHT22;21042;47.620;12.188;2022-12-18T03:41:31;-5.60;99.90
34829;DHT22;21042;47.620;12.188;2022-12-18T03:47:13;-5.80;99.90
34829;DHT22;21042;47.620;12.188;2022-12-18T03:50:11;-5.80;99.90
34829;DHT22;21042;47.620;12.188;2022-12-18T03:55:17;-5.90;99.90
34829;DHT22;21042;47.620;12.188;2022-12-18T03:57:48;-5.90;99.90
34829;DHT22;21042;47.620;12.188;2022-12-18T04:00:17;-5.90;99.90
34829;DHT22;21042;47.620;12.188;2022-12-18T04:03:03;-5.90;99.90
34829;DHT22;21042;47.620;12.188;2022-12-18T04:05:38;-5.90;99.90
34829;DHT22;21042;47.620;12.188;2022-12-18T04:08:06;-5.90;99.90
34829;DHT22;21042;47.620;12.188;2022-12-18T04:10:37;-5.90;99.90
34829;DHT22;21042;47.620;12.188;2022-12-18T04:13:03;-5.80;99.90
34829;DHT22;21042;47.620;12.188;2022-12-18T04:15:33;-5.80;99.90
34829;DHT22;21042;47.620;12.188;2022-12-18T04:18:02;-5.80;99.90
34829;DHT22;21042;47.620;12.188;2022-12-18T04:20:36;-5.80;99.90
34829;DHT22;21042;47.620;12.188;2022-12-18T04:23:03;-5.90;99.90
34829;DHT22;21042;47.620;12.188;2022-12-18T04:25:29;-6.00;99.90
34829;DHT22;21042;47.620;12.188;2022-12-18T04:28:05;-6.00;99.90
34829;DHT22;21042;47.620;12.188;2022-12-18T04:30:33;-6.10;99.90
34829;DHT22;21042;47.620;12.188;2022-12-18T04:33:00;-6.00;99.90
34829;DHT22;21042;47.620;12.188;2022-12-18T04:35:29;-6.00;99.90
34829;DHT22;21042;47.620;12.188;2022-12-18T04:37:56;-6.00;99.90
34829;DHT22;21042;47.620;12.188;2022-12-18T04:40:23;-6.00;99.90
34829;DHT22;21042;47.620;12.188;2022-12-18T04:42:51;-6.00;99.90
34829;DHT22;21042;47.620;12.188;2022-12-18T04:45:18;-6.00;99.90
34829;DHT22;21042;47.620;12.188;2022-12-18T04:47:45;-6.10;99.90
34829;DHT22;21042;47.620;12.188;2022-12-18T04:50:11;-6.00;99.90
34829;DHT22;21042;47.620;12.188;2022-12-18T04:52:38;-6.00;99.90
34829;DHT22;21042;47.620;12.188;2022-12-18T04:55:05;-5.90;99.90
34829;DHT22;21042;47.620;12.188;2022-12-18T04:57:32;-5.90;99.90
34829;DHT22;21042;47.620;12.188;2022-12-18T04:59:59;-5.90;99.90
34829;DHT22;21042;47.620;12.188;2022-12-18T05:02:25;-6.00;99.90
34829;DHT22;21042;47.620;12.188;2022-12-18T05:04:52;-6.00;99.90
34829;DHT22;21042;47.620;12.188;2022-12-18T05:07:19;-6.00;99.90
34829;DHT22;21042;47.620;12.188;2022-12-18T05:09:46;-6.10;99.90
34829;DHT22;21042;47.620;12.188;2022-12-18T05:12:12;-6.10;99.90
34829;DHT22;21042;47.620;12.188;2022-12-18T05:14:39;-6.10;99.90
34829;DHT22;21042;47.620;12.188;2022-12-18T05:17:06;-6.00;99.90
34829;DHT22;21042;47.620;12.188;2022-12-18T05:19:33;-6.00;99.90
34829;DHT22;21042;47.620;12.188;2022-12-18T05:21:59;-6.00;99.90
34829;DHT22;21042;47.620;12.188;2022-12-18T05:24:26;-5.90;99.90
34829;DHT22;21042;47.620;12.188;2022-12-18T05:26:53;-6.00;99.90
34829;DHT22;21042;47.620;12.188;2022-12-18T05:29:19;-6.00;99.90
34829;DHT22;21042;47.620;12.188;2022-12-18T05:31:46;-6.00;99.90
34829;DHT22;21042;47.620;12.188;2022-12-18T05:34:13;-6.00;99.90
34829;DHT22;21042;47.620;12.188;2022-12-18T05:36:40;-6.00;99.90
34829;DHT22;21042;47.620;12.188;2022-12-18T05:39:07;-6.00;99.90
34829;DHT22;21042;47.620;12.188;2022-12-18T05:41:33;-6.00;99.90
34829;DHT22;21042;47.620;12.188;2022-12-18T05:44:00;-6.10;99.90
34829;DHT22;21042;47.620;12.188;2022-12-18T05:46:27;-6.10;99.90
34829;DHT22;21042;47.620;12.188;2022-12-18T05:48:54;-6.10;99.90
34829;DHT22;21042;47.620;12.188;2022-12-18T05:51:22;-6.10;99.90
34829;DHT22;21042;47.620;12.188;2022-12-18T05:53:49;-6.40;99.90
34829;DHT22;21042;47.620;12.188;2022-12-18T05:56:21;-6.20;99.90
34829;DHT22;21042;47.620;12.188;2022-12-18T05:58:51;-6.30;99.90
34829;DHT22;21042;47.620;12.188;2022-12-18T06:01:23;-6.30;99.90
34829;DHT22;21042;47.620;12.188;2022-12-18T06:03:50;-6.30;99.90
34829;DHT22;21042;47.620;12.188;2022-12-18T06:06:21;-6.30;99.90
34829;DHT22;21042;47.620;12.188;2022-12-18T06:08:49;-6.30;99.90
34829;DHT22;21042;47.620;12.188;2022-12-18T06:11:18;-6.30;99.90
34829;DHT22;21042;47.620;12.188;2022-12-18T06:13:45;-6.30;99.90
34829;DHT22;21042;47.620;12.188;2022-12-18T06:23:48;-6.00;99.90
34829;DHT22;21042;47.620;12.188;2022-12-18T06:26:15;-6.00;99.90
34829;DHT22;21042;47.620;12.188;2022-12-18T06:28:42;-6.00;99.90
34829;DHT22;21042;47.620;12.188;2022-12-18T06:31:09;-6.00;99.90
34829;DHT22;21042;47.620;12.188;2022-12-18T06:33:37;-6.00;99.90
34829;DHT22;21042;47.620;12.188;2022-12-18T06:36:10;-6.00;99.90
34829;DHT22;21042;47.620;12.188;2022-12-18T06:38:40;-6.00;99.90
34829;DHT22;21042;47.620;12.188;2022-12-18T06:43:35;-6.10;99.90
34829;DHT22;21042;47.620;12.188;2022-12-18T06:46:04;-6.10;99.90
34829;DHT22;21042;47.620;12.188;2022-12-18T06:48:32;-6.20;99.90
34829;DHT22;21042;47.620;12.188;2022-12-18T06:50:58;-6.20;99.90
34829;DHT22;21042;47.620;12.188;2022-12-18T06:53:26;-6.20;99.90
34829;DHT22;21042;47.620;12.188;2022-12-18T06:55:59;-6.20;99.90
34829;DHT22;21042;47.620;12.188;2022-12-18T06:58:32;-6.10;99.90
34829;DHT22;21042;47.620;12.188;2022-12-18T07:00:59;-6.10;99.90
34829;DHT22;21042;47.620;12.188;2022-12-18T07:03:26;-6.20;99.90
34829;DHT22;21042;47.620;12.188;2022-12-18T07:05:53;-6.20;99.90
34829;DHT22;21042;47.620;12.188;2022-12-18T07:08:20;-6.20;99.90
34829;DHT22;21042;47.620;12.188;2022-12-18T07:10:47;-6.20;99.90
34829;DHT22;21042;47.620;12.188;2022-12-18T07:13:22;-6.10;99.90
34829;DHT22;21042;47.620;12.188;2022-12-18T07:15:48;-6.10;99.90
34829;DHT22;21042;47.620;12.188;2022-12-18T07:18:15;-6.10;99.90
34829;DHT22;21042;47.620;12.188;2022-12-18T07:20:42;-6.10;99.90
34829;DHT22;21042;47.620;12.188;2022-12-18T07:23:09;-6.00;99.90
34829;DHT22;21042;47.620;12.188;2022-12-18T07:25:36;-6.00;99.90
34829;DHT22;21042;47.620;12.188;2022-12-18T07:28:03;-6.00;99.90
34829;DHT22;21042;47.620;12.188;2022-12-18T07:30:30;-6.00;99.90
34829;DHT22;21042;47.620;12.188;2022-12-18T07:32:57;-6.00;99.90
34829;DHT22;21042;47.620;12.188;2022-12-18T07:35:24;-6.00;99.90
34829;DHT22;21042;47.620;12.188;2022-12-18T07:37:51;-6.00;99.90
34829;DHT22;21042;47.620;12.188;2022-12-18T07:40:17;-6.00;99.90
34829;DHT22;21042;47.620;12.188;2022-12-18T07:42:44;-6.00;99.90
34829;DHT22;21042;47.620;12.188;2022-12-18T07:45:11;-6.00;99.90
34829;DHT22;21042;47.620;12.188;2022-12-18T07:47:38;-6.10;99.90
34829;DHT22;21042;47.620;12.188;2022-12-18T07:50:05;-6.10;99.90
34829;DHT22;21042;47.620;12.188;2022-12-18T07:52:32;-6.20;99.90
34829;DHT22;21042;47.620;12.188;2022-12-18T07:54:59;-6.30;99.90
34829;DHT22;21042;47.620;12.188;2022-12-18T07:57:26;-6.30;99.90
34829;DHT22;21042;47.620;12.188;2022-12-18T08:00:13;-6.30;99.90
34829;DHT22;21042;47.620;12.188;2022-12-18T08:02:40;-6.20;99.90
34829;DHT22;21042;47.620;12.188;2022-12-18T08:05:08;-6.10;99.90
34829;DHT22;21042;47.620;12.188;2022-12-18T08:07:35;-6.10;99.90
34829;DHT22;21042;47.620;12.188;2022-12-18T08:10:01;-6.00;99.90
34829;DHT22;21042;47.620;12.188;2022-12-18T08:12:29;-5.90;99.90
34829;DHT22;21042;47.620;12.188;2022-12-18T08:14:56;-5.90;99.90
34829;DHT22;21042;47.620;12.188;2022-12-18T08:17:23;-5.80;99.90
34829;DHT22;21042;47.620;12.188;2022-12-18T08:19:49;-5.80;99.90
34829;DHT22;21042;47.620;12.188;2022-12-18T08:22:16;-5.70;99.90
34829;DHT22;21042;47.620;12.188;2022-12-18T08:24:43;-5.70;99.90
34829;DHT22;21042;47.620;12.188;2022-12-18T08:27:09;-5.70;99.90
34829;DHT22;21042;47.620;12.188;2022-12-18T08:29:56;-5.70;99.90
34829;DHT22;21042;47.620;12.188;2022-12-18T08:32:23;-5.60;99.90
34829;DHT22;21042;47.620;12.188;2022-12-18T08:34:50;-5.60;99.90
34829;DHT22;21042;47.620;12.188;2022-12-18T08:37:17;-5.70;99.90
34829;DHT22;21042;47.620;12.188;2022-12-18T08:39:43;-5.80;99.90
34829;DHT22;21042;47.620;12.188;2022-12-18T08:42:10;-5.80;99.90
34829;DHT22;21042;47.620;12.188;2022-12-18T08:44:55;-5.70;99.90
34829;DHT22;21042;47.620;12.188;2022-12-18T08:47:22;-5.50;99.90
34829;DHT22;21042;47.620;12.188;2022-12-18T08:49:49;-5.40;99.90
34829;DHT22;21042;47.620;12.188;2022-12-18T08:52:15;-5.10;99.90
34829;DHT22;21042;47.620;12.188;2022-12-18T08:54:42;-4.80;99.90
34829;DHT22;21042;47.620;12.188;2022-12-18T08:57:09;-4.90;99.90
34829;DHT22;21042;47.620;12.188;2022-12-18T08:59:36;-4.90;99.90
34829;DHT22;21042;47.620;12.188;2022-12-18T09:02:02;-4.90;99.90
34829;DHT22;21042;47.620;12.188;2022-12-18T09:04:29;-4.80;99.90
34829;DHT22;21042;47.620;12.188;2022-12-18T09:06:56;-4.80;99.90
34829;DHT22;21042;47.620;12.188;2022-12-18T09:09:23;-4.70;99.90
34829;DHT22;21042;47.620;12.188;2022-12-18T09:11:50;-4.60;99.90
34829;DHT22;21042;47.620;12.188;2022-12-18T09:14:16;-4.50;99.90
34829;DHT22;21042;47.620;12.188;2022-12-18T09:16:43;-4.40;99.90
34829;DHT22;21042;47.620;12.188;2022-12-18T09:19:10;-4.20;99.90
34829;DHT22;21042;47.620;12.188;2022-12-18T09:21:37;-4.20;99.90
34829;DHT22;21042;47.620;12.188;2022-12-18T09:24:13;-4.20;99.90
34829;DHT22;21042;47.620;12.188;2022-12-18T09:26:40;-4.10;99.90
34829;DHT22;21042;47.620;12.188;2022-12-18T09:29:09;-4.00;99.90
34829;DHT22;21042;47.620;12.188;2022-12-18T09:31:36;-3.90;99.90
34829;DHT22;21042;47.620;12.188;2022-12-18T09:34:03;-3.80;99.90
34829;DHT22;21042;47.620;12.188;2022-12-18T09:36:31;-3.60;99.90
34829;DHT22;21042;47.620;12.188;2022-12-18T09:38:58;-3.50;99.90
34829;DHT22;21042;47.620;12.188;2022-12-18T09:44:12;-3.70;99.90
34829;DHT22;21042;47.620;12.188;2022-12-18T09:46:45;-3.60;99.90
34829;DHT22;21042;47.620;12.188;2022-12-18T09:49:16;-3.60;99.90
34829;DHT22;21042;47.620;12.188;2022-12-18T09:51:49;-3.10;99.90
34829;DHT22;21042;47.620;12.188;2022-12-18T09:54:24;-3.40;99.90
34829;DHT22;21042;47.620;12.188;2022-12-18T09:56:53;-3.30;99.90
34829;DHT22;21042;47.620;12.188;2022-12-18T09:59:30;-3.20;99.90
34829;DHT22;21042;47.620;12.188;2022-12-18T10:01:58;-3.00;99.90
34829;DHT22;21042;47.620;12.188;2022-12-18T10:04:28;-2.90;99.90
34829;DHT22;21042;47.620;12.188;2022-12-18T10:07:03;-2.80;99.90
34829;DHT22;21042;47.620;12.188;2022-12-18T10:09:48;-2.60;99.90
34829;DHT22;21042;47.620;12.188;2022-12-18T10:20:58;-2.30;99.90
34829;DHT22;21042;47.620;12.188;2022-12-18T10:23:47;-2.30;99.90
34829;DHT22;21042;47.620;12.188;2022-12-18T10:26:19;-2.20;99.90
34829;DHT22;21042;47.620;12.188;2022-12-18T10:28:47;-2.10;99.90
34829;DHT22;21042;47.620;12.188;2022-12-18T10:31:21;-2.10;99.90
34829;DHT22;21042;47.620;12.188;2022-12-18T10:33:51;-2.10;99.90
34829;DHT22;21042;47.620;12.188;2022-12-18T10:36:20;-2.20;99.90
34829;DHT22;21042;47.620;12.188;2022-12-18T10:38:49;-2.20;99.90
34829;DHT22;21042;47.620;12.188;2022-12-18T10:43:47;-2.30;99.90
34829;DHT22;21042;47.620;12.188;2022-12-18T10:46:17;-2.30;99.90
34829;DHT22;21042;47.620;12.188;2022-12-18T10:48:53;-2.10;99.90
34829;DHT22;21042;47.620;12.188;2022-12-18T10:51:31;-2.00;99.90
34829;DHT22;21042;47.620;12.188;2022-12-18T10:54:16;-1.90;99.90
34829;DHT22;21042;47.620;12.188;2022-12-18T10:56:43;-1.80;99.90
34829;DHT22;21042;47.620;12.188;2022-12-18T10:59:14;-1.70;99.90
34829;DHT22;21042;47.620;12.188;2022-12-18T11:01:57;-1.70;99.90
34829;DHT22;21042;47.620;12.188;2022-12-18T11:04:27;-1.70;99.90
34829;DHT22;21042;47.620;12.188;2022-12-18T11:07:02;-1.70;99.90
34829;DHT22;21042;47.620;12.188;2022-12-18T11:09:34;-1.70;99.90
34829;DHT22;21042;47.620;12.188;2022-12-18T11:12:04;-1.60;99.90
34829;DHT22;21042;47.620;12.188;2022-12-18T11:14:42;-1.50;99.90
34829;DHT22;21042;47.620;12.188;2022-12-18T11:17:28;-1.60;99.90
34829;DHT22;21042;47.620;12.188;2022-12-18T11:20:00;-1.60;99.90
34829;DHT22;21042;47.620;12.188;2022-12-18T11:22:29;-1.60;99.90
34829;DHT22;21042;47.620;12.188;2022-12-18T11:25:06;-1.50;99.90
34829;DHT22;21042;47.620;12.188;2022-12-18T11:28:05;-1.30;99.90
34829;DHT22;21042;47.620;12.188;2022-12-18T11:33:37;-1.00;99.90
34829;DHT22;21042;47.620;12.188;2022-12-18T11:36:08;-0.90;99.90
34829;DHT22;21042;47.620;12.188;2022-12-18T11:38:37;-0.70;99.90
34829;DHT22;21042;47.620;12.188;2022-12-18T11:43:55;-0.60;99.90
34829;DHT22;21042;47.620;12.188;2022-12-18T11:46:33;-0.60;99.90
34829;DHT22;21042;47.620;12.188;2022-12-18T11:49:20;-0.50;99.90
34829;DHT22;21042;47.620;12.188;2022-12-18T11:51:55;-0.40;99.90
34829;DHT22;21042;47.620;12.188;2022-12-18T11:54:25;-0.50;99.90
34829;DHT22;21042;47.620;12.188;2022-12-18T12:08:04;-0.60;99.90
34829;DHT22;21042;47.620;12.188;2022-12-18T12:10:42;-0.60;99.90
34829;DHT22;21042;47.620;12.188;2022-12-18T12:13:26;-0.50;99.90
34829;DHT22;21042;47.620;12.188;2022-12-18T12:16:10;-0.50;99.90
34829;DHT22;21042;47.620;12.188;2022-12-18T12:21:17;-0.40;99.90
34829;DHT22;21042;47.620;12.188;2022-12-18T12:24:11;-0.40;99.90
34829;DHT22;21042;47.620;12.188;2022-12-18T12:26:49;-0.30;99.90
34829;DHT22;21042;47.620;12.188;2022-12-18T12:29:47;-0.10;99.90
34829;DHT22;21042;47.620;12.188;2022-12-18T12:32:18;0.00;99.90
34829;DHT22;21042;47.620;12.188;2022-12-18T12:40:51;0.10;99.90
34829;DHT22;21042;47.620;12.188;2022-12-18T12:43:44;0.20;99.90
34829;DHT22;21042;47.620;12.188;2022-12-18T12:46:19;0.30;99.90
34829;DHT22;21042;47.620;12.188;2022-12-18T12:48:52;0.30;99.90
34829;DHT22;21042;47.620;12.188;2022-12-18T12:51:33;0.30;99.90
34829;DHT22;21042;47.620;12.188;2022-12-18T12:54:04;0.30;99.90
34829;DHT22;21042;47.620;12.188;2022-12-18T12:57:00;0.30;99.90
34829;DHT22;21042;47.620;12.188;2022-12-18T13:02:32;0.30;99.90
34829;DHT22;21042;47.620;12.188;2022-12-18T13:05:27;0.30;99.90
34829;DHT22;21042;47.620;12.188;2022-12-18T13:08:06;0.20;99.90
34829;DHT22;21042;47.620;12.188;2022-12-18T13:10:39;0.20;99.90
34829;DHT22;21042;47.620;12.188;2022-12-18T13:13:14;0.30;99.90
34829;DHT22;21042;47.620;12.188;2022-12-18T13:16:07;0.30;99.90
34829;DHT22;21042;47.620;12.188;2022-12-18T13:18:34;0.40;99.90
34829;DHT22;21042;47.620;12.188;2022-12-18T13:21:10;0.40;99.90
34829;DHT22;21042;47.620;12.188;2022-12-18T13:23:40;0.50;99.90
34829;DHT22;21042;47.620;12.188;2022-12-18T13:36:56;0.70;99.90
34829;DHT22;21042;47.620;12.188;2022-12-18T13:39:32;0.80;99.90
34829;DHT22;21042;47.620;12.188;2022-12-18T13:44:40;0.80;99.90
34829;DHT22;21042;47.620;12.188;2022-12-18T13:47:31;0.80;99.90
34829;DHT22;21042;47.620;12.188;2022-12-18T13:50:00;0.80;99.90
34829;DHT22;21042;47.620;12.188;2022-12-18T13:52:37;0.70;99.90
34829;DHT22;21042;47.620;12.188;2022-12-18T13:55:11;0.60;99.90
34829;DHT22;21042;47.620;12.188;2022-12-18T13:57:41;0.50;99.90
34829;DHT22;21042;47.620;12.188;2022-12-18T14:00:28;0.40;99.90
34829;DHT22;21042;47.620;12.188;2022-12-18T14:02:56;0.30;99.90
34829;DHT22;21042;47.620;12.188;2022-12-18T14:05:26;0.20;99.90
34829;DHT22;21042;47.620;12.188;2022-12-18T14:07:54;0.10;99.90
34829;DHT22;21042;47.620;12.188;2022-12-18T14:10:22;0.10;99.90
34829;DHT22;21042;47.620;12.188;2022-12-18T14:13:13;0.00;99.90
34829;DHT22;21042;47.620;12.188;2022-12-18T14:15:45;0.00;99.90
34829;DHT22;21042;47.620;12.188;2022-12-18T14:18:24;-0.10;99.90
34829;DHT22;21042;47.620;12.188;2022-12-18T14:20:54;-0.20;99.90
34829;DHT22;21042;47.620;12.188;2022-12-18T14:23:34;-0.20;99.90
34829;DHT22;21042;47.620;12.188;2022-12-18T14:26:03;-0.30;99.90
34829;DHT22;21042;47.620;12.188;2022-12-18T14:28:32;-0.30;99.90
34829;DHT22;21042;47.620;12.188;2022-12-18T14:30:58;-0.40;99.90
34829;DHT22;21042;47.620;12.188;2022-12-18T14:33:27;-0.40;99.90
34829;DHT22;21042;47.620;12.188;2022-12-18T14:35:58;-0.50;99.90
34829;DHT22;21042;47.620;12.188;2022-12-18T14:41:13;-0.60;99.90
34829;DHT22;21042;47.620;12.188;2022-12-18T14:43:42;-0.60;99.90
34829;DHT22;21042;47.620;12.188;2022-12-18T14:52:21;-0.90;99.90
34829;DHT22;21042;47.620;12.188;2022-12-18T14:54:49;-0.90;99.90
34829;DHT22;21042;47.620;12.188;2022-12-18T14:57:24;-1.00;99.90
34829;DHT22;21042;47.620;12.188;2022-12-18T14:59:51;-1.10;99.90
34829;DHT22;21042;47.620;12.188;2022-12-18T15:02:28;-1.20;99.90
34829;DHT22;21042;47.620;12.188;2022-12-18T15:05:03;-1.20;99.90
34829;DHT22;21042;47.620;12.188;2022-12-18T15:07:43;-1.30;99.90
34829;DHT22;21042;47.620;12.188;2022-12-18T15:10:12;-1.30;99.90
34829;DHT22;21042;47.620;12.188;2022-12-18T15:18:02;-1.30;99.90
34829;DHT22;21042;47.620;12.188;2022-12-18T15:26:03;-1.50;99.90
34829;DHT22;21042;47.620;12.188;2022-12-18T15:28:44;-1.50;99.90
34829;DHT22;21042;47.620;12.188;2022-12-18T15:34:23;-1.60;99.90
34829;DHT22;21042;47.620;12.188;2022-12-18T15:36:30;-1.60;99.90
34829;DHT22;21042;47.620;12.188;2022-12-18T15:38:57;-1.60;99.90
34829;DHT22;21042;47.620;12.188;2022-12-18T15:41:32;-1.60;99.90
34829;DHT22;21042;47.620;12.188;2022-12-18T15:44:03;-1.60;99.90
34829;DHT22;21042;47.620;12.188;2022-12-18T15:46:30;-1.60;99.90
34829;DHT22;21042;47.620;12.188;2022-12-18T15:48:58;-1.60;99.90
34829;DHT22;21042;47.620;12.188;2022-12-18T15:51:34;-1.60;99.90
34829;DHT22;21042;47.620;12.188;2022-12-18T15:54:04;-1.70;99.90
34829;DHT22;21042;47.620;12.188;2022-12-18T15:56:31;-1.80;99.90
34829;DHT22;21042;47.620;12.188;2022-12-18T15:59:19;-1.90;99.90
34829;DHT22;21042;47.620;12.188;2022-12-18T16:01:48;-1.90;99.90
34829;DHT22;21042;47.620;12.188;2022-12-18T16:04:17;-1.90;99.90
34829;DHT22;21042;47.620;12.188;2022-12-18T16:06:47;-2.00;99.90
34829;DHT22;21042;47.620;12.188;2022-12-18T16:09:35;-2.10;99.90
34829;DHT22;21042;47.620;12.188;2022-12-18T16:12:02;-2.20;99.90
34829;DHT22;21042;47.620;12.188;2022-12-18T16:14:30;-2.30;99.90
34829;DHT22;21042;47.620;12.188;2022-12-18T16:16:59;-2.40;99.90
34829;DHT22;21042;47.620;12.188;2022-12-18T16:19:26;-2.40;99.90
34829;DHT22;21042;47.620;12.188;2022-12-18T16:21:55;-2.40;99.90
34829;DHT22;21042;47.620;12.188;2022-12-18T16:24:25;-2.50;99.90
34829;DHT22;21042;47.620;12.188;2022-12-18T16:26:53;-2.50;99.90
34829;DHT22;21042;47.620;12.188;2022-12-18T16:29:20;-2.50;99.90
34829;DHT22;21042;47.620;12.188;2022-12-18T16:31:51;-2.50;99.90
34829;DHT22;21042;47.620;12.188;2022-12-18T16:34:28;-2.50;99.90
34829;DHT22;21042;47.620;12.188;2022-12-18T16:37:03;-2.50;99.90
34829;DHT22;21042;47.620;12.188;2022-12-18T16:39:35;-2.50;99.90
34829;DHT22;21042;47.620;12.188;2022-12-18T16:42:18;-2.50;99.90
34829;DHT22;21042;47.620;12.188;2022-12-18T16:44:47;-2.50;99.90
34829;DHT22;21042;47.620;12.188;2022-12-18T16:47:14;-2.50;99.90
34829;DHT22;21042;47.620;12.188;2022-12-18T16:49:42;-2.50;99.90
34829;DHT22;21042;47.620;12.188;2022-12-18T16:52:12;-2.40;99.90
34829;DHT22;21042;47.620;12.188;2022-12-18T16:54:39;-2.40;99.90
34829;DHT22;21042;47.620;12.188;2022-12-18T16:57:06;-2.50;99.90
34829;DHT22;21042;47.620;12.188;2022-12-18T16:59:33;-2.60;99.90
34829;DHT22;21042;47.620;12.188;2022-12-18T17:02:00;-2.60;99.90
34829;DHT22;21042;47.620;12.188;2022-12-18T17:04:27;-2.60;99.90
34829;DHT22;21042;47.620;12.188;2022-12-18T17:06:54;-2.60;99.90
34829;DHT22;21042;47.620;12.188;2022-12-18T17:09:22;-2.60;99.90
34829;DHT22;21042;47.620;12.188;2022-12-18T17:11:52;-2.60;99.90
34829;DHT22;21042;47.620;12.188;2022-12-18T17:14:22;-2.50;99.90
34829;DHT22;21042;47.620;12.188;2022-12-18T17:16:49;-2.50;99.90
34829;DHT22;21042;47.620;12.188;2022-12-18T17:19:33;-2.50;99.90
34829;DHT22;21042;47.620;12.188;2022-12-18T17:22:02;-2.50;99.90
34829;DHT22;21042;47.620;12.188;2022-12-18T17:24:29;-2.50;99.90
34829;DHT22;21042;47.620;12.188;2022-12-18T17:27:01;-2.40;99.90
34829;DHT22;21042;47.620;12.188;2022-12-18T17:29:27;-2.40;99.90
34829;DHT22;21042;47.620;12.188;2022-12-18T17:31:54;-2.40;99.90